Time;durP1;ratioP1;P1;durP2;ratioP2;P2;SDS_P1;SDS_P2;PMS_P1;PMS_P2;Temp;Humidity;BMP_temperature;BMP_pressure;BME280_temperature;BME280_humidity;BME280_pressure;Samples;Min_cycle;Max_cycle;Signal;HPM_P1;HPM_P2
2021/01/11 00:00:54;;;;;;;13.80;12.40;;;;;;;1.61;81.13;101023.88;5058913;28;20213;-80
2021/01/11 00:03:20;;;;;;;15.80;12.00;;;;;;;1.61;80.64;101023.00;5071733;28;20212;-82
2021/01/11 00:05:46;;;;;;;14.80;12.93;;;;;;;1.52;80.66;101014.19;5071979;28;20274;-80
2021/01/11 00:08:12;;;;;;;14.67;13.37;;;;;;;1.47;80.59;101027.78;5068573;28;20196;-81
2021/01/11 00:10:39;;;;;;;15.53;13.10;;;;;;;1.39;81.75;101019.84;5055317;28;20224;-80
2021/01/11 00:13:04;;;;;;;15.57;13.90;;;;;;;1.44;80.99;101020.81;5064531;28;20282;-80
2021/01/11 00:15:30;;;;;;;15.10;13.53;;;;;;;1.49;81.34;101008.09;5062426;28;20229;-81
2021/01/11 00:17:56;;;;;;;16.23;14.60;;;;;;;1.36;81.13;101017.16;5065000;28;20285;-82
2021/01/11 00:20:22;;;;;;;17.70;14.90;;;;;;;1.22;81.43;101015.91;5074731;28;20296;-81
2021/01/11 00:22:48;;;;;;;17.27;15.40;;;;;;;1.38;81.51;101002.66;5075439;28;20197;-81
2021/01/11 00:25:14;;;;;;;17.23;15.40;;;;;;;1.41;82.27;101000.19;5062031;28;20235;-82
2021/01/11 00:27:42;;;;;;;16.80;15.10;;;;;;;1.42;81.57;100995.91;5071530;28;20658;-82
2021/01/11 00:30:10;;;;;;;19.70;15.53;;;;;;;1.44;81.41;100997.66;5066711;28;20670;-82
2021/01/11 00:32:36;;;;;;;18.03;15.13;;;;;;;1.54;81.71;101002.22;5063667;28;20267;-81
2021/01/11 00:35:03;;;;;;;16.60;15.10;;;;;;;1.55;81.07;101001.41;5064768;28;20266;-80
2021/01/11 00:37:29;;;;;;;20.40;15.30;;;;;;;1.50;81.04;100996.97;5061674;28;20197;-80
2021/01/11 00:39:55;;;;;;;20.30;15.50;;;;;;;1.54;81.79;100991.94;5074662;28;20219;-82
2021/01/11 00:42:21;;;;;;;18.17;14.87;;;;;;;1.57;80.92;100989.47;5059724;28;20278;-82
2021/01/11 00:44:48;;;;;;;16.63;14.93;;;;;;;1.56;81.15;100971.41;5068805;28;20240;-81
2021/01/11 00:47:14;;;;;;;20.70;16.97;;;;;;;1.59;80.86;100981.78;5061057;28;20201;-82
2021/01/11 00:49:41;;;;;;;19.40;17.37;;;;;;;1.56;81.25;100976.56;5063277;28;20204;-80
2021/01/11 00:52:07;;;;;;;20.07;17.20;;;;;;;1.46;81.72;100975.44;5067172;28;20204;-82
2021/01/11 00:54:33;;;;;;;20.07;17.17;;;;;;;1.54;81.29;100973.94;5063257;28;20646;-80
2021/01/11 00:56:58;;;;;;;19.00;17.13;;;;;;;1.58;81.84;100982.59;5063763;28;20202;-81
2021/01/11 00:59:25;;;;;;;19.17;17.17;;;;;;;1.59;81.17;100969.78;5058650;28;20262;-81
2021/01/11 01:01:53;;;;;;;20.23;18.10;;;;;;;1.58;82.09;100962.03;5060976;28;20204;-80
2021/01/11 01:04:19;;;;;;;19.77;17.80;;;;;;;1.61;81.99;100966.41;5061790;28;20605;-80
2021/01/11 01:06:45;;;;;;;21.47;18.10;;;;;;;1.58;81.47;100962.03;5061957;28;20209;-81
2021/01/11 01:09:11;;;;;;;19.47;17.63;;;;;;;1.65;82.04;100961.38;5055152;28;20196;-81
2021/01/11 01:11:38;;;;;;;20.97;18.30;;;;;;;1.58;82.17;100959.44;5051743;28;20209;-80
2021/01/11 01:14:04;;;;;;;18.70;16.87;;;;;;;1.47;82.26;100961.75;5062816;28;20259;-79
2021/01/11 01:16:30;;;;;;;17.90;16.20;;;;;;;1.47;82.29;100964.31;5053474;28;20212;-80
2021/01/11 01:18:56;;;;;;;21.70;17.83;;;;;;;1.44;82.47;100971.09;5050272;28;20252;-82
2021/01/11 01:21:22;;;;;;;19.17;16.60;;;;;;;1.41;82.76;100966.75;5051351;28;20205;-82
2021/01/11 01:23:48;;;;;;;20.07;17.57;;;;;;;1.48;82.48;100970.34;5059969;28;20224;-82
2021/01/11 01:26:14;;;;;;;19.27;17.37;;;;;;;1.52;82.07;100967.00;5051294;28;20731;-81
2021/01/11 01:28:40;;;;;;;18.57;16.57;;;;;;;1.63;82.32;100965.59;5068720;28;20654;-82
2021/01/11 01:31:06;;;;;;;21.97;17.30;;;;;;;1.68;82.37;100970.84;5056941;28;20202;-80
2021/01/11 01:33:32;;;;;;;18.47;16.73;;;;;;;1.72;81.81;100975.25;5057641;28;20218;-81
2021/01/11 01:35:58;;;;;;;20.77;18.13;;;;;;;1.74;81.80;100976.16;5056997;28;20809;-81
2021/01/11 01:38:24;;;;;;;19.07;17.10;;;;;;;1.55;81.94;100975.69;5054490;28;20266;-81
2021/01/11 01:40:50;;;;;;;20.07;17.97;;;;;;;1.57;82.30;100974.03;5058901;28;20205;-79
2021/01/11 01:43:16;;;;;;;20.70;18.63;;;;;;;1.48;82.26;100975.47;5041432;28;20194;-79
2021/01/11 01:45:42;;;;;;;20.10;18.17;;;;;;;1.53;82.69;100969.63;5061335;22;20329;-77
2021/01/11 01:48:10;;;;;;;20.57;18.67;;;;;;;1.61;81.97;100962.13;5032530;28;20206;-78
2021/01/11 01:50:37;;;;;;;21.87;18.40;;;;;;;1.71;82.00;100964.09;5037930;28;20344;-78
2021/01/11 01:53:04;;;;;;;20.00;17.07;;;;;;;1.65;81.88;100966.50;5043450;28;20590;-79
2021/01/11 01:55:31;;;;;;;21.63;17.47;;;;;;;1.58;82.21;100949.16;5042811;28;20581;-79
2021/01/11 01:58:01;;;;;;;18.93;17.13;;;;;;;1.66;82.29;100964.81;5044927;28;20209;-79
2021/01/11 02:00:27;;;;;;;21.20;16.97;;;;;;;1.64;81.33;100958.75;5045524;28;20563;-78
2021/01/11 02:02:53;;;;;;;18.33;16.33;;;;;;;1.66;81.78;100962.22;5046929;28;20209;-77
2021/01/11 02:05:19;;;;;;;17.93;16.30;;;;;;;1.71;81.08;100947.78;5032981;28;20237;-77
2021/01/11 02:07:50;;;;;;;19.40;17.40;;;;;;;1.65;80.84;100953.66;5033739;28;20216;-78
2021/01/11 02:10:31;;;;;;;19.77;15.90;;;;;;;1.59;81.33;100948.34;5039293;28;20744;-77
2021/01/11 02:13:12;;;;;;;18.17;16.30;;;;;;;1.61;81.85;100956.97;5048919;28;20221;-77
2021/01/11 02:15:43;;;;;;;16.83;15.23;;;;;;;1.50;81.19;100951.53;5037822;28;20599;-78
2021/01/11 02:18:14;;;;;;;18.70;16.80;;;;;;;1.50;81.63;100956.69;5050937;28;20194;-77
2021/01/11 02:21:29;;;;;;;18.07;16.27;;;;;;;1.43;81.66;100953.91;5037552;28;20625;-79
2021/01/11 02:24:26;;;;;;;16.90;15.13;;;;;;;1.43;81.64;100947.06;5042312;28;20224;-78
2021/01/11 02:27:03;;;;;;;17.70;15.87;;;;;;;1.49;81.42;100944.66;5041330;28;20230;-79
2021/01/11 02:29:40;;;;;;;21.13;16.63;;;;;;;1.48;81.45;100942.03;5043110;28;20689;-77
2021/01/11 02:32:08;;;;;;;16.93;15.03;;;;;;;1.38;81.23;100944.34;5036702;28;20244;-77
2021/01/11 02:34:35;;;;;;;17.03;15.30;;;;;;;1.36;81.49;100946.03;5028331;28;20268;-77
2021/01/11 02:37:02;;;;;;;17.60;15.90;;;;;;;1.45;81.79;100947.09;5042604;28;20705;-77
2021/01/11 02:39:28;;;;;;;16.87;15.17;;;;;;;1.36;82.01;100947.72;5043508;28;20197;-77
2021/01/11 02:41:54;;;;;;;18.30;16.40;;;;;;;1.43;81.66;100951.31;5041920;28;20284;-77
2021/01/11 02:44:19;;;;;;;18.13;16.13;;;;;;;1.30;82.40;100948.44;5050974;28;20361;-77
2021/01/11 02:46:46;;;;;;;17.43;15.73;;;;;;;1.42;82.29;100939.31;5043814;28;20240;-78
2021/01/11 02:49:23;;;;;;;19.17;16.70;;;;;;;1.48;82.17;100934.31;5037062;28;20202;-79
2021/01/11 02:51:59;;;;;;;17.43;15.63;;;;;;;1.56;81.32;100940.53;5044111;28;20202;-78
2021/01/11 02:54:32;;;;;;;18.53;16.93;;;;;;;1.45;81.16;100934.22;5039232;28;20263;-79
2021/01/11 02:57:04;;;;;;;17.40;15.60;;;;;;;1.55;81.83;100925.94;5039664;28;20210;-77
2021/01/11 02:59:32;;;;;;;17.73;16.13;;;;;;;1.58;81.75;100923.44;5033467;28;20576;-77
2021/01/11 03:02:04;;;;;;;18.37;15.37;;;;;;;1.63;81.57;100932.16;5042479;28;20224;-79
2021/01/11 03:04:32;;;;;;;16.43;14.87;;;;;;;1.54;81.40;100937.06;5037361;28;20202;-78
2021/01/11 03:07:00;;;;;;;16.43;14.63;;;;;;;1.61;81.39;100936.38;5044397;28;20209;-78
2021/01/11 03:09:26;;;;;;;17.03;15.43;;;;;;;1.49;80.89;100933.50;5043938;28;20201;-77
2021/01/11 03:11:53;;;;;;;22.37;15.37;;;;;;;1.49;81.54;100930.94;5044258;28;20255;-79
2021/01/11 03:14:19;;;;;;;16.00;14.50;;;;;;;1.59;81.25;100920.91;5036141;28;20300;-78
2021/01/11 03:16:45;;;;;;;14.37;12.97;;;;;;;1.52;81.58;100929.28;5045557;28;20221;-77
2021/01/11 03:19:11;;;;;;;16.27;14.67;;;;;;;1.47;81.54;100923.16;5052534;28;20208;-79
2021/01/11 03:21:37;;;;;;;16.57;15.03;;;;;;;1.51;81.31;100917.28;5041793;28;20209;-78
2021/01/11 03:24:04;;;;;;;16.10;14.63;;;;;;;1.50;81.70;100907.78;5044926;28;20197;-78
2021/01/11 03:26:30;;;;;;;15.73;14.23;;;;;;;1.51;81.43;100898.41;5040430;28;20245;-78
2021/01/11 03:28:56;;;;;;;14.77;13.43;;;;;;;1.44;81.90;100911.94;5046967;28;20746;-77
2021/01/11 03:31:22;;;;;;;15.93;14.50;;;;;;;1.33;81.78;100904.81;5040993;28;20198;-77
2021/01/11 03:33:48;;;;;;;15.60;13.30;;;;;;;1.36;82.36;100904.88;5043483;28;20632;-78
2021/01/11 03:36:15;;;;;;;14.83;13.53;;;;;;;1.36;82.14;100904.00;5035867;28;20226;-78
2021/01/11 03:38:41;;;;;;;13.67;12.37;;;;;;;1.31;81.85;100885.91;5044798;28;20563;-76
2021/01/11 03:41:08;;;;;;;17.00;14.27;;;;;;;1.33;82.84;100888.50;5045045;28;20218;-78
2021/01/11 03:43:36;;;;;;;15.73;14.13;;;;;;;1.41;82.78;100892.16;5040779;28;20229;-78
2021/01/11 03:46:02;;;;;;;14.73;13.33;;;;;;;1.44;82.07;100886.19;5048017;28;20288;-77
2021/01/11 03:48:28;;;;;;;15.43;13.97;;;;;;;1.47;82.50;100888.88;5041929;28;20206;-77
2021/01/11 03:50:54;;;;;;;15.60;14.17;;;;;;;1.38;81.83;100892.06;5037042;28;20209;-77
2021/01/11 03:53:20;;;;;;;16.87;13.43;;;;;;;1.27;82.41;100898.63;5042958;28;20592;-77
2021/01/11 03:55:46;;;;;;;16.23;14.77;;;;;;;1.43;83.11;100897.31;5038220;28;20764;-78
2021/01/11 03:58:12;;;;;;;15.80;14.30;;;;;;;1.48;82.79;100898.31;5044343;28;20202;-77
2021/01/11 04:00:38;;;;;;;14.73;13.50;;;;;;;1.53;82.39;100894.16;5045495;28;20679;-78
2021/01/11 04:03:05;;;;;;;15.90;14.47;;;;;;;1.57;82.23;100889.13;5034125;28;20281;-78
2021/01/11 04:05:31;;;;;;;14.47;13.27;;;;;;;1.63;81.59;100892.69;5040303;28;20218;-77
2021/01/11 04:07:57;;;;;;;14.27;12.97;;;;;;;1.58;81.57;100901.13;5049016;28;20214;-79
2021/01/11 04:10:23;;;;;;;19.33;13.87;;;;;;;1.64;82.27;100897.84;5038227;28;20275;-79
2021/01/11 04:12:50;;;;;;;15.57;14.13;;;;;;;1.68;82.23;100899.66;5055880;28;20202;-78
2021/01/11 04:15:16;;;;;;;15.17;13.77;;;;;;;1.72;81.38;100896.34;5047531;28;20290;-79
2021/01/11 04:17:42;;;;;;;16.00;13.87;;;;;;;1.67;81.11;100889.34;5054933;28;20205;-79
2021/01/11 04:20:09;;;;;;;14.37;12.90;;;;;;;1.53;81.38;100895.03;5039809;28;20202;-79
2021/01/11 04:22:35;;;;;;;15.13;13.73;;;;;;;1.57;82.00;100893.41;5054509;28;20216;-80
2021/01/11 04:25:01;;;;;;;15.20;13.70;;;;;;;1.54;81.43;100883.88;5046962;28;20694;-78
2021/01/11 04:27:26;;;;;;;15.60;13.70;;;;;;;1.56;82.12;100891.66;5054800;28;20215;-77
2021/01/11 04:29:53;;;;;;;15.90;14.13;;;;;;;1.59;81.59;100884.88;5045682;28;20288;-78
2021/01/11 04:32:19;;;;;;;15.60;14.00;;;;;;;1.67;81.83;100890.22;5041390;28;20566;-77
2021/01/11 04:34:45;;;;;;;17.80;14.23;;;;;;;1.71;81.65;100891.19;5045386;28;20313;-77
2021/01/11 04:37:11;;;;;;;15.07;13.47;;;;;;;1.74;81.25;100889.53;5053332;28;20208;-78
2021/01/11 04:39:38;;;;;;;15.77;14.33;;;;;;;1.56;81.08;100889.06;5045916;28;20203;-77
2021/01/11 04:42:10;;;;;;;15.33;14.03;;;;;;;1.61;80.78;100892.66;5052140;28;20209;-77
2021/01/11 04:44:37;;;;;;;14.00;12.50;;;;;;;1.42;81.04;100896.44;5039543;28;20198;-78
2021/01/11 04:47:04;;;;;;;14.97;13.47;;;;;;;1.54;81.53;100881.31;5051784;28;20255;-78
2021/01/11 04:49:30;;;;;;;13.40;11.93;;;;;;;1.61;81.26;100879.78;5046381;28;20224;-77
2021/01/11 04:51:57;;;;;;;15.03;13.73;;;;;;;1.67;80.90;100889.34;5052245;28;20405;-78
2021/01/11 04:54:24;;;;;;;12.97;11.77;;;;;;;1.68;80.34;100881.66;5047271;28;20225;-78
2021/01/11 04:56:51;;;;;;;13.93;12.20;;;;;;;1.49;81.14;100879.50;5051596;28;20225;-78
2021/01/11 04:59:18;;;;;;;12.93;11.73;;;;;;;1.46;80.74;100877.69;5031145;28;20197;-78
2021/01/11 05:01:48;;;;;;;13.27;12.00;;;;;;;1.40;80.92;100877.53;5044713;28;20726;-79
2021/01/11 05:04:15;;;;;;;13.40;12.20;;;;;;;1.49;80.80;100874.34;5036799;28;20202;-79
2021/01/11 05:06:45;;;;;;;13.30;12.00;;;;;;;1.44;81.15;100874.19;5050136;28;20228;-79
2021/01/11 05:09:13;;;;;;;14.10;12.80;;;;;;;1.51;81.60;100862.38;5039597;28;20210;-79
2021/01/11 05:11:39;;;;;;;13.43;12.10;;;;;;;1.52;80.90;100859.81;5039578;28;20215;-77
2021/01/11 05:14:05;;;;;;;13.37;12.17;;;;;;;1.39;80.69;100844.94;5038602;28;20245;-78
2021/01/11 05:16:31;;;;;;;12.60;11.17;;;;;;;1.44;81.15;100840.75;5040882;28;20312;-78
2021/01/11 05:19:01;;;;;;;13.37;12.23;;;;;;;1.50;80.92;100846.06;5050001;28;20614;-77
2021/01/11 05:21:41;;;;;;;13.27;12.00;;;;;;;1.58;81.48;100843.69;5047458;28;20210;-77
2021/01/11 05:24:32;;;;;;;13.33;12.13;;;;;;;1.64;80.55;100842.97;5051858;28;20201;-77
2021/01/11 05:27:00;;;;;;;16.70;10.53;;;;;;;1.66;81.35;100838.72;5037853;28;20694;-79
2021/01/11 05:29:26;;;;;;;12.23;10.93;;;;;;;1.64;80.26;100845.53;5044176;28;20656;-79
2021/01/11 05:31:53;;;;;;;12.90;10.57;;;;;;;1.72;80.61;100838.84;5046942;28;20213;-77
2021/01/11 05:34:19;;;;;;;12.40;10.90;;;;;;;1.68;80.04;100845.63;5045475;28;20221;-79
2021/01/11 05:36:47;;;;;;;11.50;10.50;;;;;;;1.62;80.53;100831.75;5043562;28;20277;-78
2021/01/11 05:39:13;;;;;;;10.97;9.97;;;;;;;1.72;80.66;100837.16;5041805;28;20206;-78
2021/01/11 05:41:43;;;;;;;11.03;9.90;;;;;;;1.74;80.58;100839.75;5037187;28;20198;-77
2021/01/11 05:44:13;;;;;;;11.47;10.37;;;;;;;1.77;80.73;100833.00;5037095;28;20212;-79
2021/01/11 05:46:40;;;;;;;12.40;11.07;;;;;;;1.82;80.44;100835.66;5038080;28;20288;-78
2021/01/11 05:49:08;;;;;;;11.43;10.33;;;;;;;1.83;79.57;100831.41;5036865;28;20202;-79
2021/01/11 05:51:35;;;;;;;11.63;10.60;;;;;;;1.78;80.57;100826.13;5042123;28;20202;-79
2021/01/11 05:54:03;;;;;;;10.77;9.63;;;;;;;1.74;80.34;100825.19;5039795;28;20248;-78
2021/01/11 05:56:53;;;;;;;11.47;9.63;;;;;;;1.53;80.96;100827.28;5041110;28;20324;-79
2021/01/11 05:59:19;;;;;;;10.80;9.70;;;;;;;1.61;81.10;100827.47;5033510;28;20217;-78
2021/01/11 06:01:45;;;;;;;11.50;10.23;;;;;;;1.49;80.99;100820.31;5035926;28;20213;-78
2021/01/11 06:04:11;;;;;;;12.43;11.33;;;;;;;1.52;80.60;100822.94;5040694;28;20201;-79
2021/01/11 06:06:38;;;;;;;10.37;9.10;;;;;;;1.58;81.15;100825.66;5038121;28;20233;-79
2021/01/11 06:09:07;;;;;;;11.37;10.17;;;;;;;1.55;81.19;100817.91;5036137;28;20198;-78
2021/01/11 06:11:36;;;;;;;11.57;10.40;;;;;;;1.68;81.13;100824.19;5037700;28;20213;-78
2021/01/11 06:14:04;;;;;;;11.27;10.13;;;;;;;1.72;80.76;100826.84;5038516;28;20229;-80
2021/01/11 06:16:31;;;;;;;11.87;10.77;;;;;;;1.69;80.70;100819.06;5039973;28;20232;-79
2021/01/11 06:18:57;;;;;;;10.57;9.57;;;;;;;1.55;81.21;100808.47;5038650;28;20259;-79
2021/01/11 06:21:23;;;;;;;11.17;10.27;;;;;;;1.50;80.99;100809.19;5039979;28;20205;-79
2021/01/11 06:24:17;;;;;;;12.07;10.97;;;;;;;1.52;80.82;100818.66;5036030;28;20658;-79
2021/01/11 06:26:43;;;;;;;12.10;11.10;;;;;;;1.48;81.63;100800.56;5039193;28;20226;-79
2021/01/11 06:29:30;;;;;;;11.93;10.80;;;;;;;1.49;80.75;100803.19;5036394;28;20228;-79
2021/01/11 06:31:57;;;;;;;12.30;9.57;;;;;;;1.43;81.26;100791.84;5036784;28;20202;-78
2021/01/11 06:34:37;;;;;;;11.93;10.73;;;;;;;1.55;81.21;100794.75;5039884;28;20221;-79
2021/01/11 06:37:16;;;;;;;10.67;9.67;;;;;;;1.62;80.89;100800.88;5040889;28;20577;-79
2021/01/11 06:39:44;;;;;;;11.20;9.50;;;;;;;1.59;81.21;100802.56;5035813;28;20273;-79
2021/01/11 06:42:11;;;;;;;11.10;10.10;;;;;;;1.56;81.21;100807.63;5042080;28;20642;-80
2021/01/11 06:44:39;;;;;;;10.33;9.43;;;;;;;1.40;80.66;100805.50;5033447;28;20221;-80
2021/01/11 06:47:08;;;;;;;11.57;10.57;;;;;;;1.47;81.83;100798.84;5037862;28;20268;-80
2021/01/11 06:49:36;;;;;;;11.53;10.40;;;;;;;1.48;81.48;100800.56;5033000;28;20209;-79
2021/01/11 06:52:05;;;;;;;11.70;10.50;;;;;;;1.50;80.98;100802.31;5037422;28;20224;-80
2021/01/11 06:54:36;;;;;;;11.13;10.20;;;;;;;1.37;81.76;100813.19;5036605;28;20222;-80
2021/01/11 06:57:09;;;;;;;9.50;8.50;;;;;;;1.34;82.16;100798.50;5043679;28;20207;-80
2021/01/11 06:59:37;;;;;;;11.23;10.13;;;;;;;1.44;81.84;100802.19;5033164;28;20639;-81
2021/01/11 07:02:18;;;;;;;10.70;9.63;;;;;;;1.45;81.44;100797.91;5031709;28;20216;-80
2021/01/11 07:04:44;;;;;;;10.10;9.20;;;;;;;1.37;81.62;100801.19;5033686;28;20202;-79
2021/01/11 07:07:17;;;;;;;11.23;10.23;;;;;;;1.44;81.72;100797.03;5039539;28;20293;-80
2021/01/11 07:09:55;;;;;;;11.10;10.07;;;;;;;1.53;81.56;100802.41;5033401;28;20206;-80
2021/01/11 07:12:23;;;;;;;11.23;10.07;;;;;;;1.56;81.07;100799.03;5042840;28;20216;-80
2021/01/11 07:14:57;;;;;;;10.30;9.30;;;;;;;1.36;81.62;100793.41;5036166;28;20291;-79
2021/01/11 07:17:38;;;;;;;10.57;9.40;;;;;;;1.30;81.25;100801.84;5039260;28;20197;-79
2021/01/11 07:20:07;;;;;;;18.27;10.77;;;;;;;1.40;81.09;100800.38;5037232;28;20205;-80
2021/01/11 07:22:33;;;;;;;12.67;10.17;;;;;;;1.34;81.06;100790.81;5048146;28;20202;-80
2021/01/11 07:25:05;;;;;;;11.30;10.30;;;;;;;1.37;81.26;100793.47;5035637;28;20224;-80
2021/01/11 07:27:32;;;;;;;10.07;9.03;;;;;;;1.31;81.45;100783.03;5035397;28;20209;-79
2021/01/11 07:29:58;;;;;;;11.23;10.13;;;;;;;1.39;81.34;100802.09;5034503;28;20220;-79
2021/01/11 07:32:25;;;;;;;10.47;9.33;;;;;;;1.34;80.78;100797.66;5034452;28;20236;-80
2021/01/11 07:34:58;;;;;;;12.37;10.17;;;;;;;1.40;80.72;100813.22;5043949;28;20229;-80
2021/01/11 07:37:24;;;;;;;11.23;10.10;;;;;;;1.35;80.64;100809.69;5034524;28;20206;-78
2021/01/11 07:39:50;;;;;;;12.53;9.53;;;;;;;1.46;81.53;100805.66;5032223;28;20217;-79
2021/01/11 07:42:19;;;;;;;10.70;9.60;;;;;;;1.28;81.06;100813.78;5044748;28;20228;-80
2021/01/11 07:44:46;;;;;;;11.00;10.00;;;;;;;1.28;81.76;100813.78;5031810;28;20737;-80
2021/01/11 07:47:16;;;;;;;11.33;10.30;;;;;;;1.29;81.53;100807.84;5041955;28;20214;-80
2021/01/11 07:49:56;;;;;;;11.10;10.10;;;;;;;1.35;81.79;100804.56;5042358;28;20198;-81
2021/01/11 07:52:22;;;;;;;11.70;10.60;;;;;;;1.46;81.53;100810.81;5044712;28;20208;-79
2021/01/11 07:54:56;;;;;;;13.60;11.17;;;;;;;1.55;81.54;100793.03;5048138;28;20253;-79
2021/01/11 07:57:26;;;;;;;11.60;10.40;;;;;;;1.54;81.52;100796.41;5043657;28;20195;-78
2021/01/11 08:00:03;;;;;;;12.57;10.63;;;;;;;1.44;80.24;100791.91;5038929;28;20281;-81
2021/01/11 08:02:31;;;;;;;13.60;10.90;;;;;;;1.48;80.85;100791.13;5047032;28;20209;-79
2021/01/11 08:05:05;;;;;;;12.07;10.13;;;;;;;1.52;80.40;100802.38;5043418;28;20235;-81
2021/01/11 08:07:33;;;;;;;11.33;10.23;;;;;;;1.53;80.26;100793.84;5037390;28;20290;-80
2021/01/11 08:10:00;;;;;;;12.60;10.10;;;;;;;1.41;80.57;100789.25;5039696;28;20209;-80
2021/01/11 08:12:27;;;;;;;12.43;11.23;;;;;;;1.44;81.12;100788.47;5039789;28;20208;-79
2021/01/11 08:15:00;;;;;;;11.93;10.73;;;;;;;1.48;81.39;100793.69;5036510;28;20235;-79
2021/01/11 08:17:27;;;;;;;11.33;10.17;;;;;;;1.33;81.51;100791.66;5042374;28;20198;-79
2021/01/11 08:19:55;;;;;;;11.83;10.73;;;;;;;1.40;81.39;100795.22;5043191;28;20289;-79
2021/01/11 08:22:22;;;;;;;12.30;10.20;;;;;;;1.49;81.21;100787.75;5040988;28;20207;-79
2021/01/11 08:24:49;;;;;;;11.57;10.40;;;;;;;1.45;80.92;100783.34;5039735;28;20709;-79
2021/01/11 08:27:21;;;;;;;11.00;9.90;;;;;;;1.28;81.70;100774.38;5038474;28;20658;-77
2021/01/11 08:29:47;;;;;;;11.63;10.47;;;;;;;1.21;81.64;100780.19;5037971;28;20208;-79
2021/01/11 08:32:18;;;;;;;11.40;10.30;;;;;;;1.11;82.54;100769.69;5043885;28;20202;-78
2021/01/11 08:34:44;;;;;;;11.87;10.53;;;;;;;1.19;82.84;100787.88;5036817;28;20572;-77
2021/01/11 08:37:20;;;;;;;12.70;11.40;;;;;;;1.25;83.21;100780.31;5044474;28;20250;-78
2021/01/11 08:39:54;;;;;;;10.97;9.80;;;;;;;1.32;82.31;100781.31;5043166;28;20212;-78
2021/01/11 08:42:21;;;;;;;13.23;11.87;;;;;;;1.19;82.20;100783.59;5044820;28;20196;-78
2021/01/11 08:44:47;;;;;;;12.93;11.63;;;;;;;1.26;83.09;100761.47;5035973;28;20573;-79
2021/01/11 08:47:13;;;;;;;11.40;10.40;;;;;;;1.18;82.57;100778.41;5042307;28;20284;-80
2021/01/11 08:49:56;;;;;;;12.83;10.83;;;;;;;1.05;82.87;100772.13;5038355;28;20194;-79
2021/01/11 08:52:27;;;;;;;12.67;11.47;;;;;;;1.14;83.40;100776.59;5039997;28;20664;-79
2021/01/11 08:54:53;;;;;;;12.33;11.10;;;;;;;1.20;83.12;100769.03;5035512;28;20317;-78
2021/01/11 08:57:19;;;;;;;11.93;10.73;;;;;;;1.19;82.90;100764.75;5044233;28;20665;-79
2021/01/11 08:59:49;;;;;;;11.73;10.53;;;;;;;1.06;82.48;100770.41;5035647;28;20206;-78
2021/01/11 09:02:27;;;;;;;12.90;11.50;;;;;;;1.07;83.06;100744.75;5044330;28;20209;-78
2021/01/11 09:04:54;;;;;;;12.37;11.13;;;;;;;1.04;82.82;100757.50;5039674;28;20216;-79
2021/01/11 09:07:33;;;;;;;11.17;10.13;;;;;;;0.91;83.03;100778.56;5043160;28;20216;-77
2021/01/11 09:09:59;;;;;;;13.50;10.93;;;;;;;0.93;82.74;100764.06;5035364;28;20207;-78
2021/01/11 09:12:31;;;;;;;12.00;10.80;;;;;;;1.05;82.36;100771.22;5041334;28;20254;-78
2021/01/11 09:14:57;;;;;;;10.00;9.00;;;;;;;0.89;82.02;100749.41;5033329;28;21838;-78
2021/01/11 09:17:31;;;;;;;14.57;10.60;;;;;;;1.00;82.83;100745.41;5036996;28;20205;-79
2021/01/11 09:20:00;;;;;;;10.77;9.77;;;;;;;1.06;82.04;100731.84;5034528;28;20287;-79
2021/01/11 09:22:31;;;;;;;11.57;9.77;;;;;;;1.04;81.88;100739.50;5038985;28;20196;-78
2021/01/11 09:24:57;;;;;;;10.20;9.30;;;;;;;1.17;81.67;100753.56;5032894;28;20232;-79
2021/01/11 09:27:25;;;;;;;10.03;9.03;;;;;;;1.24;81.58;100772.56;5032621;28;20201;-78
2021/01/11 09:29:51;;;;;;;10.90;9.10;;;;;;;1.23;81.44;100755.38;5034064;28;20291;-78
2021/01/11 09:32:17;;;;;;;9.00;8.10;;;;;;;1.24;80.56;100749.41;5035111;28;20202;-79
2021/01/11 09:34:44;;;;;;;9.97;9.07;;;;;;;1.22;80.09;100751.94;5039150;28;20225;-79
2021/01/11 09:37:11;;;;;;;8.97;8.13;;;;;;;1.23;79.29;100745.09;5040183;28;20264;-79
2021/01/11 09:39:37;;;;;;;11.83;8.97;;;;;;;1.26;79.65;100753.75;5035569;28;20230;-79
2021/01/11 09:42:03;;;;;;;9.50;8.50;;;;;;;1.29;79.40;100745.22;5040200;28;20675;-79
2021/01/11 09:44:29;;;;;;;9.63;8.00;;;;;;;1.41;80.24;100742.97;5037827;28;20206;-78
2021/01/11 09:46:57;;;;;;;9.57;7.97;;;;;;;1.47;78.72;100739.69;5038603;28;20214;-78
2021/01/11 09:49:24;;;;;;;8.83;7.90;;;;;;;1.44;78.35;100740.44;5036711;28;20202;-78
2021/01/11 09:51:51;;;;;;;9.47;8.63;;;;;;;1.47;79.24;100748.25;5038751;28;20654;-78
2021/01/11 09:54:17;;;;;;;8.90;8.20;;;;;;;1.61;79.21;100746.00;5031395;28;20234;-79
2021/01/11 09:56:43;;;;;;;9.37;8.20;;;;;;;1.58;78.54;100745.91;5037613;28;20229;-78
2021/01/11 09:59:10;;;;;;;8.63;7.83;;;;;;;1.71;78.74;100740.22;5036101;28;20671;-78
2021/01/11 10:01:40;;;;;;;8.93;7.90;;;;;;;1.79;78.78;100758.41;5037125;28;20206;-78
2021/01/11 10:04:07;;;;;;;8.77;7.87;;;;;;;1.64;78.66;100748.63;5038426;28;20205;-77
2021/01/11 10:06:41;;;;;;;8.50;7.40;;;;;;;1.74;78.74;100742.84;5037026;28;20218;-77
2021/01/11 10:09:08;;;;;;;8.47;7.60;;;;;;;1.77;78.57;100748.06;5031840;28;20208;-77
2021/01/11 10:11:34;;;;;;;8.90;8.00;;;;;;;1.72;77.52;100743.66;5029310;28;20206;-78
2021/01/11 10:14:00;;;;;;;8.23;7.43;;;;;;;1.65;76.54;100742.66;5034036;28;20215;-78
2021/01/11 10:16:26;;;;;;;7.30;6.60;;;;;;;1.64;76.99;100740.03;5040631;28;20791;-83
2021/01/11 10:18:52;;;;;;;8.40;7.63;;;;;;;1.70;77.80;100741.03;5042838;28;20218;-84
2021/01/11 10:21:18;;;;;;;8.30;7.50;;;;;;;1.72;77.22;100733.34;5049234;28;20209;-84
2021/01/11 10:23:47;;;;;;;8.33;6.97;;;;;;;1.70;77.71;100733.31;5042702;28;20198;-84
2021/01/11 10:26:19;;;;;;;8.80;7.10;;;;;;;1.64;78.94;100722.88;5047716;28;20569;-84
2021/01/11 10:28:45;;;;;;;7.53;6.83;;;;;;;1.76;79.00;100724.84;5039904;28;20202;-82
2021/01/11 10:31:11;;;;;;;7.70;6.93;;;;;;;1.67;77.51;100727.25;5034768;28;20202;-77
2021/01/11 10:33:37;;;;;;;7.23;6.53;;;;;;;1.72;77.72;100715.34;5032680;28;20236;-77
2021/01/11 10:36:03;;;;;;;8.37;7.50;;;;;;;1.88;78.06;100709.66;5038588;28;20230;-79
2021/01/11 10:38:29;;;;;;;8.57;7.70;;;;;;;1.83;77.77;100700.16;5036072;28;20213;-77
2021/01/11 10:40:55;;;;;;;8.47;7.63;;;;;;;1.84;77.27;100699.28;5035498;28;20784;-77
2021/01/11 10:43:22;;;;;;;8.43;7.63;;;;;;;1.93;79.12;100691.78;5037846;28;20642;-78
2021/01/11 10:45:48;;;;;;;8.60;7.27;;;;;;;1.89;78.34;100698.56;5035794;28;20233;-77
2021/01/11 10:48:14;;;;;;;7.77;7.07;;;;;;;1.96;78.28;100694.38;5037573;28;20200;-77
2021/01/11 10:50:39;;;;;;;7.87;6.77;;;;;;;2.10;77.91;100704.97;5035709;28;20285;-77
2021/01/11 10:53:05;;;;;;;9.00;8.00;;;;;;;2.08;77.59;100697.22;5038918;28;20655;-76
2021/01/11 10:55:31;;;;;;;7.60;7.00;;;;;;;1.97;77.63;100686.69;5033141;28;20237;-77
2021/01/11 10:57:57;;;;;;;7.70;6.93;;;;;;;1.97;77.24;100675.53;5036910;28;20198;-77
2021/01/11 11:00:24;;;;;;;8.27;7.47;;;;;;;2.12;78.98;100673.28;5033879;28;20235;-77
2021/01/11 11:02:50;;;;;;;7.70;7.03;;;;;;;2.17;78.28;100670.78;5034529;28;20206;-77
2021/01/11 11:05:16;;;;;;;7.60;7.00;;;;;;;2.26;78.45;100665.81;5037138;28;20276;-77
2021/01/11 11:07:43;;;;;;;7.00;6.40;;;;;;;2.05;76.86;100663.69;5032114;28;20230;-77
2021/01/11 11:10:10;;;;;;;7.17;6.47;;;;;;;2.15;76.70;100657.00;5032551;28;20205;-78
2021/01/11 11:12:36;;;;;;;9.90;7.03;;;;;;;2.23;76.72;100650.28;5029778;28;20198;-78
2021/01/11 11:15:03;;;;;;;8.83;7.93;;;;;;;2.11;79.46;100655.22;5032122;28;20230;-77
2021/01/11 11:17:30;;;;;;;10.27;6.97;;;;;;;1.79;76.85;100658.88;5031472;28;20198;-78
2021/01/11 11:19:56;;;;;;;9.27;8.33;;;;;;;1.83;77.64;100654.69;5029652;28;20268;-77
2021/01/11 11:22:22;;;;;;;9.90;6.87;;;;;;;2.01;77.68;100646.44;5036914;28;20276;-77
2021/01/11 11:24:48;;;;;;;7.97;7.27;;;;;;;1.91;76.39;100647.97;5038610;28;20685;-78
2021/01/11 11:27:14;;;;;;;8.23;7.53;;;;;;;1.90;76.91;100633.38;5041288;28;20200;-78